Time;durP1;ratioP1;P1;durP2;ratioP2;P2;SDS_P1;SDS_P2;PMS_P1;PMS_P2;Temp;Humidity;BMP_temperature;BMP_pressure;BME280_temperature;BME280_humidity;BME280_pressure;Samples;Min_cycle;Max_cycle;Signal;HPM_P1;HPM_P2
2023/01/30 00:01:29;;;;;;;9.70;7.82;;;-1.50;99.90;;;;;;5063290;28;20396;-80
2023/01/30 00:03:55;;;;;;;10.27;8.00;;;-1.50;99.90;;;;;;5062511;28;20512;-80
2023/01/30 00:06:20;;;;;;;8.77;7.30;;;-1.40;99.90;;;;;;5060991;28;20407;-80
2023/01/30 00:08:46;;;;;;;8.90;7.78;;;-1.40;99.90;;;;;;5062111;28;20393;-81
2023/01/30 00:11:14;;;;;;;8.88;7.40;;;-1.40;99.90;;;;;;5063254;28;20404;-80
2023/01/30 00:13:41;;;;;;;10.80;7.50;;;-1.50;99.90;;;;;;5062626;28;20771;-79
2023/01/30 00:16:08;;;;;;;9.95;6.97;;;-1.40;99.90;;;;;;5060256;28;20381;-80
2023/01/30 00:18:34;;;;;;;8.10;7.30;;;-1.40;99.90;;;;;;5062680;28;20405;-79
2023/01/30 00:21:02;;;;;;;10.00;7.88;;;-1.40;99.90;;;;;;5061744;28;20385;-80
2023/01/30 00:23:30;;;;;;;8.55;6.75;;;-1.40;99.90;;;;;;5062744;28;20389;-79
2023/01/30 00:25:56;;;;;;;9.02;7.75;;;-1.40;99.90;;;;;;5059874;28;20389;-79
2023/01/30 00:28:22;;;;;;;10.32;7.38;;;-1.50;99.90;;;;;;5061833;28;20403;-80
2023/01/30 00:30:52;;;;;;;10.10;7.70;;;-1.60;99.90;;;;;;5058624;28;20396;-79
2023/01/30 00:33:19;;;;;;;10.55;8.38;;;-1.70;99.90;;;;;;5061793;28;20401;-80
2023/01/30 00:35:49;;;;;;;10.48;7.78;;;-1.70;99.90;;;;;;5058361;28;20546;-80
2023/01/30 00:38:16;;;;;;;8.43;7.00;;;-1.60;99.90;;;;;;5060038;28;20447;-80
2023/01/30 00:40:42;;;;;;;9.23;7.13;;;-1.60;99.90;;;;;;5060210;28;20496;-79
2023/01/30 00:48:41;;;;;;;10.13;7.75;;;-1.60;99.90;;;;;;5059231;28;20424;-79
2023/01/30 00:51:07;;;;;;;11.70;8.07;;;-1.70;99.90;;;;;;5064413;28;20398;-78
2023/01/30 00:53:33;;;;;;;8.37;7.37;;;-1.70;99.90;;;;;;5070730;28;20401;-78
2023/01/30 00:55:58;;;;;;;7.65;6.88;;;-1.70;99.90;;;;;;5069533;28;20397;-79
2023/01/30 00:58:25;;;;;;;7.05;6.20;;;-1.60;99.90;;;;;;5064559;28;20408;-79
2023/01/30 01:00:51;;;;;;;8.60;7.07;;;-1.70;99.90;;;;;;5060738;28;20386;-79
2023/01/30 01:03:17;;;;;;;8.33;6.90;;;-1.60;99.90;;;;;;5061411;28;20451;-80
2023/01/30 01:05:42;;;;;;;8.65;7.10;;;-1.60;99.90;;;;;;5059843;28;20417;-80
2023/01/30 01:08:09;;;;;;;10.00;8.10;;;-1.60;99.90;;;;;;5059166;28;20419;-79
2023/01/30 01:10:35;;;;;;;8.87;7.47;;;-1.60;99.90;;;;;;5060416;28;20481;-79
2023/01/30 01:13:00;;;;;;;9.80;7.78;;;-1.60;99.90;;;;;;5061482;28;20397;-80
2023/01/30 01:15:26;;;;;;;10.25;7.63;;;-1.50;99.90;;;;;;5060895;28;20963;-80
2023/01/30 01:17:52;;;;;;;8.15;7.35;;;-1.60;99.90;;;;;;5059679;28;20385;-80
2023/01/30 01:20:19;;;;;;;9.50;7.78;;;-1.70;99.90;;;;;;5060239;28;20808;-80
2023/01/30 01:22:45;;;;;;;9.40;7.65;;;-1.70;99.90;;;;;;5059036;28;20504;-80
2023/01/30 01:25:11;;;;;;;10.00;6.90;;;-1.50;99.90;;;;;;5060450;28;20511;-80
2023/01/30 01:27:37;;;;;;;12.68;8.40;;;-1.60;99.90;;;;;;5058672;28;20891;-79
2023/01/30 01:30:03;;;;;;;10.93;7.53;;;-1.50;99.90;;;;;;5060071;28;20393;-80
2023/01/30 01:32:29;;;;;;;9.82;7.13;;;-1.60;99.90;;;;;;5059534;28;20413;-80
2023/01/30 01:34:54;;;;;;;8.70;7.80;;;-1.70;99.90;;;;;;5058583;28;20406;-80
2023/01/30 01:37:20;;;;;;;9.40;7.60;;;-1.50;99.90;;;;;;5058276;28;20393;-79
2023/01/30 01:42:33;;;;;;;8.88;7.25;;;-1.60;99.90;;;;;;5061088;28;20392;-81
2023/01/30 01:45:20;;;;;;;9.10;7.05;;;-1.50;99.90;;;;;;5060217;28;20382;-81
2023/01/30 01:47:55;;;;;;;11.05;7.95;;;-1.50;99.90;;;;;;5059269;28;20423;-80
2023/01/30 01:50:27;;;;;;;11.03;8.10;;;-1.60;99.90;;;;;;5059811;28;20461;-81
2023/01/30 01:52:54;;;;;;;8.75;7.63;;;-1.40;99.90;;;;;;5058543;28;20387;-81
2023/01/30 01:55:21;;;;;;;10.80;7.88;;;-1.50;99.90;;;;;;5061222;28;20416;-81
2023/01/30 01:58:01;;;;;;;10.90;8.52;;;-1.50;99.90;;;;;;5061568;28;20401;-81
2023/01/30 02:00:27;;;;;;;12.10;8.77;;;-1.50;99.90;;;;;;5059133;28;20404;-81
2023/01/30 02:03:03;;;;;;;9.03;7.00;;;-1.40;99.90;;;;;;5059755;28;20373;-81
2023/01/30 02:05:33;;;;;;;10.48;8.07;;;-1.30;99.90;;;;;;5056985;28;20408;-81
2023/01/30 02:08:10;;;;;;;11.40;8.98;;;-0.90;99.90;;;;;;5056474;28;20374;-81
2023/01/30 02:10:53;;;;;;;12.88;8.57;;;-0.30;99.90;;;;;;5055421;28;20397;-79
2023/01/30 02:13:19;;;;;;;11.18;9.00;;;0.20;99.90;;;;;;5057116;28;20428;-79
2023/01/30 02:15:44;;;;;;;12.75;9.98;;;0.40;99.90;;;;;;5057335;28;20397;-79
2023/01/30 02:18:12;;;;;;;11.90;9.10;;;0.60;99.90;;;;;;5057570;28;20408;-80
2023/01/30 02:20:56;;;;;;;11.25;8.55;;;0.60;99.90;;;;;;5058114;28;20767;-80
2023/01/30 02:23:38;;;;;;;10.75;8.27;;;0.70;99.90;;;;;;5041483;28;20401;-79
2023/01/30 02:26:32;;;;;;;11.70;8.68;;;0.70;99.90;;;;;;5052793;28;20572;-80
2023/01/30 02:29:22;;;;;;;11.43;9.05;;;0.80;99.90;;;;;;5057732;28;20400;-80
2023/01/30 02:32:25;;;;;;;11.13;8.27;;;0.70;99.90;;;;;;5055086;28;20393;-80
2023/01/30 02:35:05;;;;;;;11.07;8.73;;;0.70;99.90;;;;;;5058710;28;20409;-80
2023/01/30 02:37:49;;;;;;;10.40;7.72;;;0.70;99.90;;;;;;5055577;28;20476;-80
2023/01/30 02:40:35;;;;;;;10.73;9.05;;;0.70;99.90;;;;;;5055862;28;20488;-80
2023/01/30 02:43:14;;;;;;;10.27;8.40;;;0.70;99.90;;;;;;5056688;28;20948;-80
2023/01/30 02:45:55;;;;;;;8.80;7.50;;;0.60;99.90;;;;;;5055331;28;20389;-80
2023/01/30 02:48:27;;;;;;;8.52;6.90;;;0.10;99.90;;;;;;5056462;28;21106;-80
2023/01/30 02:51:00;;;;;;;8.25;6.75;;;-0.20;99.90;;;;;;5088239;22;20430;-81
2023/01/30 02:53:28;;;;;;;9.25;7.10;;;-0.50;99.90;;;;;;5086376;28;20461;-81
2023/01/30 02:55:54;;;;;;;7.40;6.05;;;-0.70;99.90;;;;;;5084999;28;20460;-81
2023/01/30 02:58:23;;;;;;;9.55;7.60;;;-0.90;99.90;;;;;;5066310;28;20399;-82
2023/01/30 03:01:25;;;;;;;7.80;6.60;;;-1.00;99.90;;;;;;5085908;28;20387;-82
2023/01/30 03:04:09;;;;;;;8.30;6.18;;;-1.10;99.90;;;;;;5083452;28;20468;-82
2023/01/30 03:06:47;;;;;;;8.13;6.10;;;-1.10;99.90;;;;;;5057568;28;20892;-82
2023/01/30 03:09:39;;;;;;;8.85;7.00;;;-1.30;99.90;;;;;;5065920;28;20459;-82
2023/01/30 03:12:39;;;;;;;7.93;6.72;;;-1.20;99.90;;;;;;5086184;28;20452;-82
2023/01/30 03:15:12;;;;;;;9.10;6.30;;;-1.30;99.90;;;;;;5086935;28;20415;-82
2023/01/30 03:17:42;;;;;;;9.00;6.53;;;-1.30;99.90;;;;;;5072971;28;20889;-80
2023/01/30 03:20:09;;;;;;;7.78;6.13;;;-1.20;99.90;;;;;;5078817;28;20415;-82
2023/01/30 03:22:35;;;;;;;8.43;6.22;;;-1.30;99.90;;;;;;5096731;28;20391;-81
2023/01/30 03:25:00;;;;;;;8.40;5.97;;;-1.40;99.90;;;;;;5096237;28;20383;-80
2023/01/30 03:27:26;;;;;;;6.77;5.90;;;-1.40;99.90;;;;;;5094634;28;20371;-82
2023/01/30 03:29:52;;;;;;;7.55;6.57;;;-1.50;99.90;;;;;;5095617;28;20371;-81
2023/01/30 03:32:17;;;;;;;9.35;6.60;;;-1.50;99.90;;;;;;5077629;28;20402;-81
2023/01/30 03:34:43;;;;;;;8.85;6.78;;;-1.60;99.90;;;;;;5073888;28;20460;-82
2023/01/30 03:37:08;;;;;;;7.53;6.53;;;-1.50;99.90;;;;;;5085037;28;20462;-82
2023/01/30 03:39:34;;;;;;;8.20;6.53;;;-1.50;99.90;;;;;;5069326;28;20387;-82
2023/01/30 03:42:00;;;;;;;9.07;7.00;;;-1.50;99.90;;;;;;5067341;28;20409;-82
2023/01/30 03:44:25;;;;;;;8.93;7.30;;;-1.60;99.90;;;;;;5068310;28;20415;-82
2023/01/30 03:46:51;;;;;;;9.03;7.00;;;-1.50;99.90;;;;;;5067344;28;20399;-82
2023/01/30 03:49:17;;;;;;;8.23;6.40;;;-1.60;99.90;;;;;;5085480;28;20395;-82
2023/01/30 03:51:42;;;;;;;8.70;6.82;;;-1.60;99.90;;;;;;5084339;28;20406;-82
2023/01/30 03:54:08;;;;;;;8.65;6.47;;;-1.70;99.90;;;;;;5067247;28;20403;-82
2023/01/30 03:56:33;;;;;;;7.93;7.05;;;-1.70;99.90;;;;;;5085277;28;20375;-82
2023/01/30 03:58:59;;;;;;;8.45;6.85;;;-1.70;99.90;;;;;;5086173;28;20383;-82
2023/01/30 04:01:24;;;;;;;8.80;6.65;;;-1.80;99.90;;;;;;5092791;28;20435;-81
2023/01/30 04:03:50;;;;;;;7.90;6.80;;;-1.90;99.90;;;;;;5075644;28;20417;-81
2023/01/30 04:06:15;;;;;;;8.40;6.93;;;-1.80;99.90;;;;;;5059453;28;20448;-82
2023/01/30 04:08:41;;;;;;;7.53;5.90;;;-1.80;99.90;;;;;;5047755;28;20475;-82
2023/01/30 04:11:06;;;;;;;8.10;6.20;;;-1.90;99.90;;;;;;5046820;28;20469;-82
2023/01/30 04:13:32;;;;;;;9.03;6.53;;;-2.00;99.90;;;;;;5062225;28;20431;-82
2023/01/30 04:16:17;;;;;;;8.33;6.73;;;-2.00;99.90;;;;;;5083275;28;20791;-82
2023/01/30 04:18:43;;;;;;;9.60;7.20;;;-2.00;99.90;;;;;;5084152;28;20371;-82
2023/01/30 04:21:08;;;;;;;9.27;7.45;;;-2.00;99.90;;;;;;5084220;28;20376;-82
2023/01/30 04:23:34;;;;;;;9.60;7.50;;;-1.90;99.90;;;;;;5064905;28;20407;-82
2023/01/30 04:25:59;;;;;;;8.90;7.10;;;-1.90;99.90;;;;;;5082522;28;20410;-82
2023/01/30 04:28:25;;;;;;;9.47;7.03;;;-2.00;99.90;;;;;;5065340;28;20414;-82
2023/01/30 04:30:53;;;;;;;9.70;7.43;;;-2.00;99.90;;;;;;5065050;28;20390;-82
2023/01/30 04:33:19;;;;;;;9.73;7.55;;;-2.00;99.90;;;;;;5083943;28;20734;-82
2023/01/30 04:35:56;;;;;;;10.80;7.60;;;-1.90;99.90;;;;;;5082778;28;20415;-82
2023/01/30 04:38:22;;;;;;;9.23;7.22;;;-2.00;99.90;;;;;;5084307;28;20376;-82
2023/01/30 04:40:52;;;;;;;9.87;7.33;;;-2.10;99.90;;;;;;5083327;28;20497;-82
2023/01/30 04:43:19;;;;;;;8.50;7.60;;;-2.10;99.90;;;;;;5083804;28;20429;-82
2023/01/30 04:45:49;;;;;;;10.35;7.57;;;-2.10;99.90;;;;;;5082496;28;20765;-82
2023/01/30 04:48:15;;;;;;;11.15;7.53;;;-2.20;99.90;;;;;;5084036;28;20394;-82
2023/01/30 04:50:42;;;;;;;8.32;7.43;;;-2.10;99.90;;;;;;5066192;28;20403;-82
2023/01/30 04:53:09;;;;;;;9.68;7.80;;;-2.10;99.90;;;;;;5082620;28;20380;-82
2023/01/30 04:55:35;;;;;;;11.13;7.75;;;-2.10;99.90;;;;;;5063807;28;20396;-82
2023/01/30 04:58:00;;;;;;;10.88;7.40;;;-2.00;99.90;;;;;;5082281;28;20388;-82
2023/01/30 05:00:26;;;;;;;9.63;7.10;;;-2.00;99.90;;;;;;5065151;28;20924;-82
2023/01/30 05:02:54;;;;;;;9.20;7.43;;;-2.00;99.90;;;;;;5081807;28;20386;-82
2023/01/30 05:05:21;;;;;;;8.50;7.28;;;-2.10;99.90;;;;;;5079619;28;20395;-82
2023/01/30 05:07:46;;;;;;;9.40;7.47;;;-1.40;99.90;;;;;;5049040;28;20422;-81
2023/01/30 05:10:12;;;;;;;9.63;7.30;;;-1.80;99.90;;;;;;5063422;28;20376;-81
2023/01/30 05:12:37;;;;;;;9.77;7.50;;;-1.30;99.90;;;;;;5063398;28;20384;-81
2023/01/30 05:15:03;;;;;;;11.07;8.60;;;-0.80;99.90;;;;;;5081105;28;20403;-81
2023/01/30 05:17:29;;;;;;;9.85;6.80;;;-0.50;99.90;;;;;;5080490;28;20387;-81
2023/01/30 05:19:54;;;;;;;7.07;6.32;;;-0.20;99.90;;;;;;5081370;28;20387;-81
2023/01/30 05:22:20;;;;;;;9.80;7.60;;;-0.10;99.90;;;;;;5081499;28;20801;-81
2023/01/30 05:24:46;;;;;;;9.63;6.90;;;0.30;99.90;;;;;;5064011;28;20956;-81
2023/01/30 05:27:11;;;;;;;8.43;7.43;;;0.30;99.90;;;;;;5079412;28;20392;-80
2023/01/30 05:29:37;;;;;;;8.47;6.20;;;0.40;99.90;;;;;;5073293;28;20467;-79
2023/01/30 05:32:03;;;;;;;8.40;6.80;;;0.40;99.90;;;;;;5072917;28;20402;-80
2023/01/30 05:34:29;;;;;;;10.02;6.90;;;0.50;99.90;;;;;;5079975;28;20407;-80
2023/01/30 05:36:54;;;;;;;10.00;7.80;;;0.60;99.90;;;;;;5080456;28;20414;-80
2023/01/30 05:39:20;;;;;;;9.00;7.07;;;0.50;99.90;;;;;;5064132;28;20809;-80
2023/01/30 05:41:45;;;;;;;9.02;6.75;;;0.60;99.90;;;;;;5064358;28;20960;-80
2023/01/30 05:44:11;;;;;;;9.65;7.30;;;0.50;99.90;;;;;;5080956;28;20810;-80
2023/01/30 05:46:36;;;;;;;8.68;6.88;;;0.60;99.90;;;;;;5061159;28;20391;-80
2023/01/30 05:49:03;;;;;;;8.43;7.45;;;0.60;99.90;;;;;;5081841;28;20423;-80
2023/01/30 05:51:29;;;;;;;9.43;7.38;;;0.60;99.90;;;;;;5062782;28;20399;-80
2023/01/30 05:53:55;;;;;;;9.98;7.47;;;0.50;99.90;;;;;;5080829;28;20411;-79
2023/01/30 05:56:21;;;;;;;8.75;7.22;;;0.60;99.90;;;;;;5074276;28;20752;-79
2023/01/30 05:58:55;;;;;;;9.35;7.50;;;0.60;99.90;;;;;;5076782;28;20396;-79
2023/01/30 06:01:22;;;;;;;9.32;8.13;;;0.60;99.90;;;;;;5060238;28;20829;-79
2023/01/30 06:03:48;;;;;;;8.97;7.23;;;0.60;99.90;;;;;;5079123;28;20391;-80
2023/01/30 06:06:14;;;;;;;9.25;7.10;;;0.60;99.90;;;;;;5050219;28;20401;-80
2023/01/30 06:08:40;;;;;;;9.15;7.30;;;0.60;99.90;;;;;;5040785;28;20392;-79
2023/01/30 06:11:14;;;;;;;8.82;6.82;;;0.70;99.90;;;;;;5062905;28;20456;-79
2023/01/30 06:13:40;;;;;;;9.80;7.30;;;0.70;99.90;;;;;;5058884;28;20506;-79
2023/01/30 06:16:07;;;;;;;9.07;6.90;;;0.80;99.90;;;;;;5067699;28;20388;-80
2023/01/30 06:18:33;;;;;;;7.20;5.72;;;0.80;99.90;;;;;;5084926;28;20402;-80
2023/01/30 06:20:58;;;;;;;7.40;6.13;;;0.80;99.90;;;;;;5084934;28;20391;-80
2023/01/30 06:23:24;;;;;;;8.55;7.10;;;0.60;99.90;;;;;;5067208;28;20471;-80
2023/01/30 06:25:51;;;;;;;8.03;6.53;;;0.90;99.90;;;;;;5083387;28;20447;-79
2023/01/30 06:28:17;;;;;;;8.20;6.68;;;1.00;99.90;;;;;;5084103;28;20417;-78
2023/01/30 06:30:43;;;;;;;7.93;6.38;;;0.90;99.90;;;;;;5082804;28;20383;-79
2023/01/30 06:33:09;;;;;;;9.55;6.60;;;1.10;99.90;;;;;;5073912;28;20404;-78
2023/01/30 06:35:37;;;;;;;9.00;6.10;;;1.10;99.90;;;;;;5083183;28;20463;-79
2023/01/30 06:38:03;;;;;;;7.32;6.03;;;1.00;99.90;;;;;;5082597;28;20395;-80
2023/01/30 06:40:28;;;;;;;7.50;6.40;;;1.10;99.90;;;;;;5082747;28;20823;-79
2023/01/30 06:42:54;;;;;;;7.65;5.68;;;1.10;99.90;;;;;;5064429;28;20445;-79
2023/01/30 06:45:19;;;;;;;7.63;6.50;;;1.10;99.90;;;;;;5064000;28;20476;-79
2023/01/30 06:47:52;;;;;;;9.40;6.70;;;1.00;99.90;;;;;;5064137;28;20387;-79
2023/01/30 06:50:19;;;;;;;8.15;7.18;;;0.70;99.90;;;;;;5082117;28;20464;-79
2023/01/30 06:52:46;;;;;;;9.45;7.72;;;0.30;99.90;;;;;;5067448;28;20387;-80
2023/01/30 06:55:16;;;;;;;7.72;6.65;;;0.20;99.90;;;;;;5064614;28;20434;-78
2023/01/30 06:57:43;;;;;;;9.10;7.35;;;-0.10;99.90;;;;;;5082953;28;20383;-79
2023/01/30 07:00:13;;;;;;;8.85;7.10;;;-0.10;99.90;;;;;;5084255;28;20379;-82
2023/01/30 07:02:38;;;;;;;10.35;7.50;;;-0.30;99.90;;;;;;5068257;28;20375;-80
2023/01/30 07:05:06;;;;;;;9.63;7.53;;;-0.30;99.90;;;;;;5085493;28;20423;-80
2023/01/30 07:07:32;;;;;;;10.57;7.68;;;-0.40;99.90;;;;;;5064117;28;20411;-79
2023/01/30 07:09:58;;;;;;;9.43;7.40;;;-0.40;99.90;;;;;;5066225;28;20470;-80
2023/01/30 07:12:25;;;;;;;9.70;8.10;;;-0.50;99.90;;;;;;5084557;28;20391;-79
2023/01/30 07:14:52;;;;;;;8.65;6.88;;;-0.50;99.90;;;;;;5065509;28;20761;-79
2023/01/30 07:17:18;;;;;;;10.10;7.50;;;-0.60;99.90;;;;;;5083041;28;20410;-79
2023/01/30 07:19:44;;;;;;;9.93;8.02;;;-0.70;99.90;;;;;;5065181;28;20415;-80
2023/01/30 07:22:10;;;;;;;10.23;8.18;;;-0.70;99.90;;;;;;5083199;28;20379;-80
2023/01/30 07:24:36;;;;;;;9.32;7.28;;;-0.80;99.90;;;;;;5082587;28;20920;-79
2023/01/30 07:27:01;;;;;;;8.82;7.88;;;-0.80;99.90;;;;;;5082344;28;20491;-80
2023/01/30 07:29:27;;;;;;;11.70;8.73;;;-0.80;99.90;;;;;;5082821;28;20757;-80
2023/01/30 07:31:52;;;;;;;11.13;7.93;;;-0.90;99.90;;;;;;5082655;28;20387;-81
2023/01/30 07:34:18;;;;;;;9.13;7.70;;;-0.80;99.90;;;;;;5063920;28;20436;-81
2023/01/30 07:36:43;;;;;;;8.80;7.90;;;-0.70;99.90;;;;;;5081476;28;20403;-81
2023/01/30 07:39:09;;;;;;;11.33;8.40;;;-0.90;99.90;;;;;;5061924;28;20444;-80
2023/01/30 07:41:35;;;;;;;10.20;8.50;;;-0.80;99.90;;;;;;5081548;28;20417;-80
2023/01/30 07:44:01;;;;;;;9.20;8.18;;;-0.80;99.90;;;;;;5063086;28;20404;-80
2023/01/30 07:46:33;;;;;;;11.18;8.40;;;-0.70;99.90;;;;;;5082140;28;20395;-80
2023/01/30 07:49:08;;;;;;;11.20;8.60;;;-0.60;99.90;;;;;;5082934;28;20395;-80
2023/01/30 07:51:34;;;;;;;10.18;7.47;;;-0.60;99.90;;;;;;5063959;28;20399;-80
2023/01/30 07:54:00;;;;;;;11.55;8.95;;;-0.50;99.90;;;;;;5064129;28;20828;-80
2023/01/30 07:56:27;;;;;;;9.35;7.95;;;-0.60;99.90;;;;;;5063591;28;20388;-80
2023/01/30 07:58:53;;;;;;;9.40;7.05;;;-0.40;99.90;;;;;;5085553;28;20411;-80
2023/01/30 08:01:19;;;;;;;10.70;7.90;;;-0.30;99.90;;;;;;5088869;28;20460;-80
2023/01/30 08:03:45;;;;;;;10.13;7.93;;;-0.10;99.90;;;;;;5090512;28;20396;-80
2023/01/30 08:06:12;;;;;;;10.05;7.50;;;0.20;99.90;;;;;;5065100;28;20395;-79
2023/01/30 08:08:38;;;;;;;12.95;8.95;;;0.20;99.90;;;;;;5084638;28;20467;-80
2023/01/30 08:11:04;;;;;;;10.57;7.60;;;0.80;99.90;;;;;;5088465;28;20730;-80
2023/01/30 08:13:29;;;;;;;10.93;7.73;;;1.20;99.90;;;;;;5070441;28;20392;-79
2023/01/30 08:15:59;;;;;;;9.77;7.90;;;1.50;99.90;;;;;;5068906;28;20387;-80
2023/01/30 08:18:24;;;;;;;8.45;6.85;;;1.60;99.90;;;;;;5068865;28;20383;-80
2023/01/30 08:20:50;;;;;;;10.30;7.80;;;1.80;99.90;;;;;;5086713;28;20415;-79
2023/01/30 08:23:15;;;;;;;9.40;8.30;;;1.70;99.90;;;;;;5069183;28;20379;-79
2023/01/30 08:25:41;;;;;;;10.33;7.50;;;1.60;99.90;;;;;;5070037;28;20731;-80
2023/01/30 08:28:06;;;;;;;8.30;6.27;;;1.70;99.90;;;;;;5068387;28;21034;-80
2023/01/30 08:30:32;;;;;;;9.33;6.60;;;1.80;99.90;;;;;;5086624;28;20388;-80
2023/01/30 08:32:58;;;;;;;9.37;7.57;;;1.70;99.90;;;;;;5086619;28;20463;-79
2023/01/30 08:35:23;;;;;;;7.00;6.10;;;1.80;99.90;;;;;;5085948;28;20407;-79
2023/01/30 08:37:49;;;;;;;11.57;6.43;;;1.90;99.90;;;;;;5084078;28;20398;-80
2023/01/30 08:40:15;;;;;;;6.57;5.67;;;2.20;99.90;;;;;;5064940;28;20513;-79
2023/01/30 08:42:43;;;;;;;7.35;5.97;;;2.20;99.90;;;;;;5084962;28;20379;-79
2023/01/30 08:45:09;;;;;;;6.32;5.20;;;2.20;99.90;;;;;;5084183;28;20388;-79
2023/01/30 08:47:35;;;;;;;7.57;6.63;;;2.30;99.90;;;;;;5065946;28;20414;-79
2023/01/30 08:50:01;;;;;;;7.40;5.80;;;2.30;99.90;;;;;;5099067;22;20422;-80
2023/01/30 08:52:27;;;;;;;10.43;6.75;;;2.30;99.90;;;;;;5065464;28;20389;-80
2023/01/30 08:54:52;;;;;;;9.80;7.32;;;2.30;99.90;;;;;;5084604;28;20402;-80
2023/01/30 08:57:18;;;;;;;10.98;7.75;;;2.30;99.90;;;;;;5063831;28;20421;-78
2023/01/30 08:59:43;;;;;;;8.77;7.45;;;2.30;99.90;;;;;;5063966;28;20431;-78
2023/01/30 09:02:10;;;;;;;9.18;7.15;;;2.20;99.90;;;;;;5063012;28;20382;-79
2023/01/30 09:04:36;;;;;;;7.45;6.65;;;2.30;99.90;;;;;;5060759;28;20425;-78
2023/01/30 09:07:01;;;;;;;7.33;5.87;;;2.30;99.90;;;;;;5047353;28;20410;-78
2023/01/30 09:09:28;;;;;;;9.33;6.73;;;2.40;99.90;;;;;;5076052;28;20472;-78
2023/01/30 09:11:53;;;;;;;7.90;6.60;;;2.50;99.90;;;;;;5046539;28;20401;-79
2023/01/30 09:14:19;;;;;;;7.40;6.10;;;2.50;99.90;;;;;;5045581;28;20407;-78
2023/01/30 09:16:54;;;;;;;8.60;6.70;;;2.50;99.90;;;;;;5064542;28;20858;-78
2023/01/30 09:19:24;;;;;;;7.53;6.40;;;2.50;99.90;;;;;;5062961;28;20439;-78
2023/01/30 09:21:51;;;;;;;9.30;6.20;;;2.50;99.90;;;;;;5061737;28;20398;-78
2023/01/30 09:24:17;;;;;;;7.13;5.80;;;2.50;99.90;;;;;;5066147;28;20412;-78
2023/01/30 09:26:44;;;;;;;7.60;6.30;;;2.40;99.90;;;;;;5065196;28;20398;-79
2023/01/30 09:29:13;;;;;;;6.97;5.95;;;2.50;99.90;;;;;;5066701;28;20397;-79
2023/01/30 09:31:39;;;;;;;8.40;6.22;;;2.40;99.90;;;;;;5062657;28;20416;-79
2023/01/30 09:34:05;;;;;;;7.10;5.65;;;2.70;99.90;;;;;;5066610;28;20397;-78
2023/01/30 09:36:31;;;;;;;8.05;6.13;;;2.70;99.90;;;;;;5067872;28;20955;-79
2023/01/30 09:38:56;;;;;;;7.40;6.10;;;2.60;99.90;;;;;;5065285;28;20890;-79
2023/01/30 09:41:31;;;;;;;7.47;6.10;;;2.70;99.90;;;;;;5066710;28;20382;-79
2023/01/30 09:44:18;;;;;;;6.22;5.40;;;2.80;99.90;;;;;;5063587;28;20770;-79
2023/01/30 09:46:54;;;;;;;7.87;5.77;;;2.90;99.40;;;;;;5065964;28;20416;-78
2023/01/30 09:49:29;;;;;;;7.82;6.28;;;3.00;99.00;;;;;;5066024;28;20476;-79
2023/01/30 09:52:00;;;;;;;8.60;6.35;;;2.90;99.90;;;;;;5065940;28;20437;-79
2023/01/30 09:54:29;;;;;;;7.25;5.90;;;2.90;99.80;;;;;;5062687;28;20397;-79
2023/01/30 09:57:11;;;;;;;8.10;6.20;;;2.90;99.50;;;;;;5063547;28;20794;-79
2023/01/30 10:00:10;;;;;;;8.40;6.53;;;3.00;99.50;;;;;;5064575;28;20378;-79
2023/01/30 10:02:38;;;;;;;8.35;5.80;;;2.90;99.90;;;;;;5065485;28;20377;-80
2023/01/30 10:05:04;;;;;;;7.05;5.55;;;3.10;99.10;;;;;;5069341;28;20392;-78
2023/01/30 10:07:41;;;;;;;5.82;4.78;;;3.20;98.10;;;;;;5051276;28;20387;-78
2023/01/30 10:10:33;;;;;;;6.95;5.88;;;3.20;98.30;;;;;;5086096;28;20403;-79
2023/01/30 10:13:29;;;;;;;6.65;5.72;;;3.20;97.80;;;;;;5066791;28;20440;-80
2023/01/30 10:16:07;;;;;;;7.55;5.97;;;3.30;97.50;;;;;;5046421;28;20399;-79
2023/01/30 10:18:41;;;;;;;7.40;6.10;;;3.30;96.10;;;;;;5047561;28;20421;-80
2023/01/30 10:21:23;;;;;;;7.30;5.68;;;3.30;96.60;;;;;;5047325;28;20408;-78
2023/01/30 10:23:52;;;;;;;8.35;5.20;;;3.40;96.30;;;;;;5048106;28;20383;-79
2023/01/30 10:26:23;;;;;;;7.10;5.63;;;3.40;96.30;;;;;;5055444;28;20408;-79
2023/01/30 10:29:06;;;;;;;7.35;5.63;;;3.30;95.60;;;;;;5066790;28;20382;-80
2023/01/30 10:31:41;;;;;;;7.28;6.07;;;3.20;96.70;;;;;;5064622;28;20389;-79
2023/01/30 10:34:15;;;;;;;7.30;6.00;;;3.30;96.50;;;;;;5066188;28;20427;-80
2023/01/30 10:37:10;;;;;;;6.95;5.47;;;3.40;95.70;;;;;;5064911;28;20413;-80
2023/01/30 10:39:50;;;;;;;6.95;5.70;;;3.30;95.30;;;;;;5066739;28;20382;-79
2023/01/30 10:42:51;;;;;;;6.25;5.22;;;3.30;96.00;;;;;;5065884;28;20389;-78
2023/01/30 10:45:23;;;;;;;5.72;5.05;;;3.50;96.60;;;;;;5047226;28;20756;-78
2023/01/30 10:47:58;;;;;;;6.40;5.18;;;3.50;95.50;;;;;;5064422;28;20392;-78
2023/01/30 10:50:51;;;;;;;6.10;4.75;;;3.60;94.70;;;;;;5065298;28;20397;-79
2023/01/30 10:53:24;;;;;;;7.13;5.20;;;3.60;95.30;;;;;;5065448;28;20385;-80
2023/01/30 10:56:19;;;;;;;7.28;5.05;;;3.70;94.50;;;;;;5063429;28;20384;-80
2023/01/30 10:59:06;;;;;;;6.43;4.93;;;4.80;92.80;;;;;;5023587;28;20393;-79
2023/01/30 11:01:58;;;;;;;5.70;4.28;;;4.50;90.00;;;;;;5062455;28;20441;-80
2023/01/30 11:04:37;;;;;;;6.10;5.03;;;4.50;87.70;;;;;;5061001;28;20918;-79
2023/01/30 11:07:02;;;;;;;4.88;4.38;;;4.50;88.00;;;;;;5046423;28;20395;-79
2023/01/30 11:09:40;;;;;;;6.90;4.90;;;4.40;90.10;;;;;;5060145;28;20397;-79
2023/01/30 11:12:05;;;;;;;5.05;4.40;;;4.60;89.60;;;;;;5062996;28;20398;-80
2023/01/30 11:14:48;;;;;;;5.80;4.10;;;4.50;89.10;;;;;;5060480;28;20435;-80
2023/01/30 11:17:17;;;;;;;6.33;4.60;;;4.70;89.50;;;;;;5064475;28;20393;-79
2023/01/30 11:19:42;;;;;;;4.50;3.78;;;4.40;88.20;;;;;;5060112;28;20389;-79
2023/01/30 11:22:14;;;;;;;5.40;4.30;;;4.30;88.60;;;;;;5060334;28;20811;-80
2023/01/30 11:24:40;;;;;;;6.90;4.90;;;4.20;90.30;;;;;;5060131;28;20777;-79
2023/01/30 11:27:10;;;;;;;5.38;4.30;;;4.40;90.20;;;;;;5062526;28;20388;-80
2023/01/30 11:29:38;;;;;;;5.40;4.50;;;4.70;86.90;;;;;;5058556;28;20390;-79
2023/01/30 11:32:10;;;;;;;4.85;4.13;;;4.60;88.20;;;;;;5060320;28;20420;-80
2023/01/30 11:34:36;;;;;;;5.18;3.70;;;4.40;89.70;;;;;;5062818;28;20397;-79
2023/01/30 11:37:14;;;;;;;4.40;3.40;;;4.30;90.30;;;;;;5063227;28;20506;-79
2023/01/30 11:39:49;;;;;;;4.33;3.90;;;4.90;91.10;;;;;;5063641;28;20430;-80
2023/01/30 11:42:18;;;;;;;4.22;3.83;;;4.20;90.80;;;;;;5042929;28;20474;-80
2023/01/30 11:44:43;;;;;;;5.60;3.43;;;4.40;91.30;;;;;;5041237;28;20452;-78
2023/01/30 11:47:19;;;;;;;6.10;4.10;;;4.20;91.50;;;;;;5058178;28;20387;-79
2023/01/30 11:49:51;;;;;;;4.10;3.70;;;4.40;92.50;;;;;;5043074;28;20877;-80
2023/01/30 11:52:19;;;;;;;4.80;3.67;;;4.50;92.50;;;;;;5046790;28;20899;-79
2023/01/30 11:54:45;;;;;;;6.47;3.42;;;4.60;91.70;;;;;;5060764;28;20417;-79
2023/01/30 11:57:16;;;;;;;4.70;3.63;;;4.40;92.70;;;;;;5062917;28;20389;-79
2023/01/30 11:59:48;;;;;;;3.92;3.40;;;4.60;92.40;;;;;;5072742;28;20772;-79
2023/01/30 12:02:20;;;;;;;4.93;3.50;;;4.40;94.00;;;;;;5070785;28;20910;-81
2023/01/30 12:04:50;;;;;;;3.53;2.83;;;4.40;94.20;;;;;;5071926;28;20420;-79
2023/01/30 12:07:25;;;;;;;4.38;2.80;;;4.40;95.10;;;;;;5053676;28;20383;-78
2023/01/30 12:09:53;;;;;;;5.28;3.50;;;4.40;95.80;;;;;;5055851;28;20398;-80
2023/01/30 12:12:32;;;;;;;4.38;3.58;;;4.50;96.00;;;;;;5070168;28;20461;-79
2023/01/30 12:15:05;;;;;;;4.00;3.00;;;4.40;95.50;;;;;;5068912;28;20401;-80
2023/01/30 12:17:41;;;;;;;3.60;3.00;;;4.30;97.10;;;;;;5068675;28;20404;-80
2023/01/30 12:20:32;;;;;;;4.40;3.72;;;4.60;96.50;;;;;;5069497;28;20373;-79
2023/01/30 12:23:06;;;;;;;5.07;3.47;;;4.40;96.30;;;;;;5069092;28;20385;-80
2023/01/30 12:25:54;;;;;;;4.50;3.47;;;4.50;97.40;;;;;;5069571;28;20492;-80
2023/01/30 12:28:54;;;;;;;2.97;2.60;;;4.50;99.90;;;;;;5040289;28;20401;-79
2023/01/30 12:31:28;;;;;;;4.05;3.30;;;4.40;99.70;;;;;;5076158;28;20406;-79
2023/01/30 12:33:55;;;;;;;4.40;3.85;;;4.30;99.40;;;;;;5071796;28;20412;-79
2023/01/30 12:36:58;;;;;;;3.50;2.97;;;4.30;99.90;;;;;;5068904;28;20928;-80
2023/01/30 12:39:45;;;;;;;4.97;3.80;;;4.20;99.90;;;;;;5068334;28;20430;-78
2023/01/30 12:42:30;;;;;;;4.80;3.90;;;4.30;99.90;;;;;;5069175;28;20820;-80
2023/01/30 12:45:21;;;;;;;5.80;4.70;;;4.40;99.80;;;;;;5068296;28;20886;-80
2023/01/30 12:48:21;;;;;;;5.05;3.90;;;4.30;99.90;;;;;;5066718;28;20830;-80
2023/01/30 12:51:21;;;;;;;4.53;3.60;;;4.40;99.90;;;;;;5068428;28;20400;-79
2023/01/30 12:53:54;;;;;;;5.40;3.90;;;4.40;99.90;;;;;;5068094;28;20489;-80
2023/01/30 12:56:35;;;;;;;4.82;4.05;;;4.50;99.90;;;;;;5067727;28;20394;-80
2023/01/30 12:59:01;;;;;;;4.70;3.90;;;4.50;99.90;;;;;;5067061;28;20492;-80
2023/01/30 13:01:32;;;;;;;5.40;4.30;;;4.40;99.90;;;;;;5068066;28;20389;-79
2023/01/30 13:04:12;;;;;;;5.43;4.20;;;4.30;99.90;;;;;;5067981;28;20494;-79
2023/01/30 13:07:13;;;;;;;5.28;4.28;;;4.40;99.90;;;;;;5052137;28;20387;-80
2023/01/30 13:10:14;;;;;;;5.28;4.00;;;4.20;99.90;;;;;;5046224;28;20406;-80
2023/01/30 13:13:07;;;;;;;4.53;4.13;;;4.40;99.90;;;;;;5089778;28;20389;-79
2023/01/30 13:15:55;;;;;;;4.93;4.15;;;4.30;99.90;;;;;;5075339;28;20386;-80
2023/01/30 13:18:31;;;;;;;5.40;4.20;;;4.40;99.90;;;;;;5074806;28;20354;-80